createdAt,value
2023-01-29T00:05:43.010Z,55.00
2023-01-29T00:15:54.734Z,57.43
2023-01-29T00:25:59.756Z,51.70
2023-01-29T00:36:09.550Z,56.83
2023-01-29T00:46:11.340Z,50.87
2023-01-29T00:56:12.904Z,48.03
2023-01-29T01:06:14.330Z,50.63
2023-01-29T01:16:18.965Z,48.33
2023-01-29T01:26:20.335Z,42.05
2023-01-29T01:36:21.954Z,51.22
2023-01-29T01:46:28.551Z,48.77
2023-01-29T01:56:40.506Z,46.17
2023-01-29T02:07:02.428Z,45.47
2023-01-29T02:17:03.898Z,55.13
2023-01-29T02:27:09.439Z,50.50
2023-01-29T02:37:13.724Z,44.38
2023-01-29T02:47:35.701Z,37.10
2023-01-29T02:57:44.728Z,51.20
2023-01-29T03:19:13.622Z,56.38
2023-01-29T03:29:33.628Z,46.93
2023-01-29T03:39:36.908Z,48.27
2023-01-29T03:49:47.454Z,50.33
2023-01-29T03:59:54.939Z,51.17
2023-01-29T04:10:02.818Z,47.77
2023-01-29T04:20:04.603Z,37.42
2023-01-29T04:30:21.288Z,52.27
2023-01-29T04:40:40.281Z,49.70
2023-01-29T04:50:56.759Z,46.60
2023-01-29T05:01:01.013Z,68.63
2023-01-29T05:11:02.470Z,51.67
2023-01-29T05:21:07.442Z,55.00
2023-01-29T05:31:09.700Z,56.58
2023-01-29T05:41:11.218Z,47.23
2023-01-29T05:51:12.757Z,49.23
2023-01-29T06:01:17.281Z,50.30
2023-01-29T06:11:18.934Z,55.23
2023-01-29T06:21:20.477Z,56.10
2023-01-29T06:31:37.443Z,52.20
2023-01-29T06:41:39.574Z,63.55
2023-01-29T06:51:41.097Z,40.90
2023-01-29T07:01:44.339Z,50.77
2023-01-29T07:11:46.005Z,52.25
2023-01-29T07:21:47.422Z,49.00
2023-01-29T07:31:49.118Z,51.77
2023-01-29T07:41:50.743Z,63.83
2023-01-29T07:51:52.079Z,50.77
2023-01-29T08:01:53.476Z,41.37
2023-01-29T08:11:54.945Z,53.13
2023-01-29T08:21:56.424Z,56.13
2023-01-29T08:31:57.948Z,56.20
2023-01-29T08:41:59.535Z,57.33
2023-01-29T08:52:02.987Z,53.15
2023-01-29T09:02:04.668Z,45.93
2023-01-29T09:12:06.429Z,56.83
2023-01-29T09:22:08.310Z,42.90
2023-01-29T09:32:10.637Z,44.63
2023-01-29T09:42:31.616Z,53.73
2023-01-29T09:52:37.789Z,56.30
2023-01-29T10:13:39.467Z,57.67
2023-01-29T10:23:47.761Z,55.47
2023-01-29T10:34:01.999Z,47.30
2023-01-29T10:44:25.233Z,25.10
2023-01-29T10:55:08.112Z,50.63
2023-01-29T11:05:33.103Z,42.63
2023-01-29T11:15:34.938Z,46.43
2023-01-29T11:25:36.520Z,27.93
2023-01-29T11:35:38.040Z,57.30
2023-01-29T11:45:40.366Z,51.17
2023-01-29T11:55:50.880Z,47.67
2023-01-29T12:05:59.463Z,45.03
2023-01-29T12:16:12.784Z,49.33
2023-01-29T12:26:34.198Z,49.80
2023-01-29T12:36:43.874Z,47.80
2023-01-29T12:46:53.916Z,53.13
2023-01-29T12:56:59.894Z,42.53
2023-01-29T13:07:28.265Z,36.37
2023-01-29T13:18:02.836Z,28.23
2023-01-29T13:28:04.466Z,39.25
2023-01-29T13:38:17.052Z,41.70
2023-01-29T13:48:28.920Z,29.67
2023-01-29T13:58:33.393Z,37.20
2023-01-29T14:08:34.709Z,40.57
2023-01-29T14:18:44.634Z,41.10
2023-01-29T14:29:00.681Z,43.03
2023-01-29T14:39:02.144Z,35.10
2023-01-29T14:49:03.661Z,37.90
2023-01-29T14:59:20.851Z,43.63
2023-01-29T15:09:32.698Z,43.83
2023-01-29T15:19:44.803Z,38.50
2023-01-29T15:30:17.682Z,36.63
2023-01-29T15:40:19.669Z,39.55
2023-01-29T15:50:21.981Z,32.03
2023-01-29T16:00:29.669Z,33.50
2023-01-29T16:10:32.439Z,35.45
2023-01-29T16:20:39.102Z,27.57
2023-01-29T16:30:40.775Z,28.80
2023-01-29T16:41:15.931Z,40.58
2023-01-29T16:51:38.492Z,19.55
2023-01-29T17:01:39.870Z,25.57
2023-01-29T17:11:44.393Z,35.90
2023-01-29T17:21:46.731Z,33.40
2023-01-29T17:31:48.440Z,39.30
2023-01-29T17:41:52.463Z,25.83
2023-01-29T17:51:55.603Z,21.50
2023-01-29T18:01:57.221Z,34.93
2023-01-29T18:11:58.659Z,29.57
2023-01-29T18:22:00.154Z,27.25
2023-01-29T18:32:02.023Z,34.88
2023-01-29T18:42:03.629Z,35.97
2023-01-29T18:52:06.466Z,27.10
2023-01-29T19:02:07.949Z,36.53
2023-01-29T19:12:09.854Z,40.10
2023-01-29T19:22:11.434Z,31.37
2023-01-29T19:32:12.911Z,23.30
2023-01-29T19:42:14.594Z,23.97
2023-01-29T19:52:49.904Z,33.20
2023-01-29T20:02:52.453Z,27.42
2023-01-29T20:12:53.935Z,35.42
2023-01-29T20:22:55.539Z,34.77
2023-01-29T20:32:57.012Z,38.23
2023-01-29T20:42:58.476Z,22.45
2023-01-29T20:52:59.918Z,25.37
2023-01-29T21:03:01.618Z,52.97
2023-01-29T21:13:03.189Z,31.40
2023-01-29T21:23:07.036Z,23.57
2023-01-29T21:33:08.720Z,34.63
2023-01-29T21:43:13.072Z,24.58
2023-01-29T21:53:15.036Z,12.85
2023-01-29T22:03:16.639Z,33.77
2023-01-29T22:13:18.781Z,36.63
2023-01-29T22:23:20.232Z,36.63
2023-01-29T22:33:21.763Z,31.60
2023-01-29T22:43:25.818Z,33.17
2023-01-29T22:53:27.256Z,34.45
2023-01-29T23:03:28.830Z,37.63
2023-01-29T23:13:30.303Z,27.73
2023-01-29T23:23:33.507Z,35.47
2023-01-29T23:33:34.900Z,39.13
2023-01-29T23:43:37.517Z,29.30
2023-01-29T23:53:39.142Z,34.90
